Baileyville, IL

10:34 AM CST del 28 novembre 2014 (GMT -0600)
Albertus | Change Station
CLOSE
Current Station
Aeroporto
Location: Freeport,
Altitudine: 860 ft
Stazioni meteo nelle vicinanze

Alt. 860 ft 42.25 °N, 89.58 °W | Updated 19 minutes ago

Sereno
Sereno
21 °F
Sembra 8 °F
N
14
Vento Variabile Vento da ESE

Oggi
Massima -- | Minima -- °F
--% Possibilità di precip.
Ieri
Massima -- | Minima -- °F
Precip. -- in
7:04 AM 4:28 PM
Luna crescente, 42% visible
Pressione 30.12 in
Visibilità 10.0 miglia
Nuvole Coperto 11000 ft
Raffreddamento del vento 8 °F
Punto di rugiada 14 °F
Umidità 75%
Piovosità 0.00 in
Spessore del manto nevoso Non disponibile.
Raggi UV 1 fuori da 12
Polline .10 fuori da 12
Qualità dell'aria Non disponibile.
Flu Activity Non disponibile.
METAR KFEP 281615Z AUTO 12012KT 10SM OVC110 M06/M10 A3012 RMK AO2 T10611099

More Conditions Fewer Conditions

Pressione 30.12 in
Visibilità 10.0 miglia
Nuvole Coperto 11000 ft
Raffreddamento del vento 8 °F
Punto di rugiada 14 °F
Umidità 75%
Piovosità 0.00 in
Spessore del manto nevoso Non disponibile.
Raggi UV 1 fuori da 12
Polline .10 fuori da 12
Qualità dell'aria Non disponibile.
Flu Activity Non disponibile.
METAR KFEP 281615Z AUTO 12012KT 10SM OVC110 M06/M10 A3012 RMK AO2 T10611099

More Conditions Fewer Conditions

10-Day Weather Forecast

Almanac

Astronomia

Nov. 28, 2014 Alba Tramonto
Ora attuale
Crepuscolo civile
Crepuscolo nautico
Crepuscolo astronomico
Luna
Estensione della luce visibile
Lunghezza del giorno
Tomorrow will be .
, % of the Moon is Illuminated

Gli estremi di oggi

State Highs State Lows

Community

WunderPhotos

Upload Photos

1,774,232 foto caricate!

WunderBlogs® & News

Nearby

Qualità dell'aria

  Qualità dell'aria Indice AQ Inquinante
Not available.

Profondità neve

Stazione Profondità Altitudine

Attività sismica

Città  Distanza Mag. Data & Ora
Minimo Magnitudo Mostrato è 2.5.

Temperature delle acque costiere

Località Temperatura

Stazioni meteo nelle vicinanze